Terminal Aerodrome Forecast
Issued by NWS

Home | Current Version | Previous Version | Text Only | Print | Product List | Glossary On
Versions: 1 2 3 4 5 6 7 8 9 10 11 12 13 14 15 16 17 18 19 20 21
000
FTUS44 KLUB 280520
TAFCDS
TAF
KCDS 280520Z 2806/0106 12007KT P6SM OVC008
     FM281200 15007KT 4SM BR BKN004 OVC025 PROB30 2815/2820 -FZDZSN=

USA.gov is the U.S. government's official web portal to all federal, state and local government web resources and services.